<?xml version="1.0" encoding="UTF-8" standalone="no" ?>
<gpx xmlns="http://www.topografix.com/GPX/1/1" xmlns:xsi="http://www.w3.org/2001/XMLSchema-instance" xsi:schemaLocation="http://www.topografix.com/GPX/1/1 http://www.topografix.com/GPX/1/1/gpx.xsd" version="1.1" creator="VisuGPX - https://www.visugpx.com">
  <metadata>
    <name>Marche BP 12.6km</name>
    <desc><![CDATA[Marche anciens BP version 12.6km]]></desc>
  </metadata>
  <trk>
    <name><![CDATA[OR-7994206--Courdimanche:Marche anciens BP (BIS)]]></name>
    <trkseg>
      <trkpt lat="49.04381" lon="1.99805">
        <ele>114</ele>
        <time>2017-10-09T19:15:33Z</time>
      </trkpt>
      <trkpt lat="49.04429" lon="1.99864">
        <ele>113</ele>
        <time>2017-10-09T19:17:33Z</time>
      </trkpt>
      <trkpt lat="49.04467" lon="1.99879">
        <ele>113</ele>
        <time>2017-10-09T19:19:33Z</time>
      </trkpt>
      <trkpt lat="49.04459" lon="1.99964">
        <ele>113</ele>
        <time>2017-10-09T19:21:33Z</time>
      </trkpt>
      <trkpt lat="49.04429" lon="2.00145">
        <ele>114</ele>
        <time>2017-10-09T19:23:33Z</time>
      </trkpt>
      <trkpt lat="49.04414" lon="2.00233">
        <ele>114</ele>
        <time>2017-10-09T19:25:33Z</time>
      </trkpt>
      <trkpt lat="49.0433" lon="2.00209">
        <ele>115</ele>
        <time>2017-10-09T19:27:33Z</time>
      </trkpt>
      <trkpt lat="49.04299" lon="2.00299">
        <ele>116</ele>
        <time>2017-10-09T19:29:33Z</time>
      </trkpt>
      <trkpt lat="49.04277" lon="2.00295">
        <ele>117</ele>
        <time>2017-10-09T19:31:33Z</time>
      </trkpt>
      <trkpt lat="49.04218" lon="2.00469">
        <ele>119</ele>
        <time>2017-10-09T19:33:33Z</time>
      </trkpt>
      <trkpt lat="49.04203" lon="2.00477">
        <ele>119</ele>
        <time>2017-10-09T19:35:33Z</time>
      </trkpt>
      <trkpt lat="49.04209" lon="2.00507">
        <ele>119</ele>
        <time>2017-10-09T19:37:33Z</time>
      </trkpt>
      <trkpt lat="49.04197" lon="2.00533">
        <ele>119</ele>
        <time>2017-10-09T19:39:33Z</time>
      </trkpt>
      <trkpt lat="49.04187" lon="2.00546">
        <ele>119</ele>
        <time>2017-10-09T19:41:33Z</time>
      </trkpt>
      <trkpt lat="49.0418" lon="2.00574">
        <ele>120</ele>
        <time>2017-10-09T19:43:33Z</time>
      </trkpt>
      <trkpt lat="49.04185" lon="2.00591">
        <ele>120</ele>
        <time>2017-10-09T19:45:33Z</time>
      </trkpt>
      <trkpt lat="49.04162" lon="2.00664">
        <ele>117</ele>
        <time>2017-10-09T19:47:33Z</time>
      </trkpt>
      <trkpt lat="49.04131" lon="2.00681">
        <ele>118</ele>
        <time>2017-10-09T19:49:33Z</time>
      </trkpt>
      <trkpt lat="49.04048" lon="2.00722">
        <ele>119</ele>
        <time>2017-10-09T19:51:33Z</time>
      </trkpt>
      <trkpt lat="49.03972" lon="2.00782">
        <ele>118</ele>
        <time>2017-10-09T19:53:33Z</time>
      </trkpt>
      <trkpt lat="49.03924" lon="2.0081">
        <ele>118</ele>
        <time>2017-10-09T19:55:33Z</time>
      </trkpt>
      <trkpt lat="49.0387" lon="2.00748">
        <ele>121</ele>
        <time>2017-10-09T19:57:33Z</time>
      </trkpt>
      <trkpt lat="49.03843" lon="2.00685">
        <ele>125</ele>
        <time>2017-10-09T19:59:33Z</time>
      </trkpt>
      <trkpt lat="49.03805" lon="2.00475">
        <ele>136</ele>
        <time>2017-10-09T20:01:33Z</time>
      </trkpt>
      <trkpt lat="49.03791" lon="2.00443">
        <ele>137</ele>
        <time>2017-10-09T20:03:33Z</time>
      </trkpt>
      <trkpt lat="49.03787" lon="2.00531">
        <ele>135</ele>
        <time>2017-10-09T20:05:33Z</time>
      </trkpt>
      <trkpt lat="49.03791" lon="2.00445">
        <ele>137</ele>
        <time>2017-10-09T20:07:33Z</time>
      </trkpt>
      <trkpt lat="49.03754" lon="2.00402">
        <ele>140</ele>
        <time>2017-10-09T20:09:33Z</time>
      </trkpt>
      <trkpt lat="49.03667" lon="2.004">
        <ele>143</ele>
        <time>2017-10-09T20:11:33Z</time>
      </trkpt>
      <trkpt lat="49.036" lon="2.00353">
        <ele>145</ele>
        <time>2017-10-09T20:13:33Z</time>
      </trkpt>
      <trkpt lat="49.0356" lon="2.00335">
        <ele>146</ele>
        <time>2017-10-09T20:15:33Z</time>
      </trkpt>
      <trkpt lat="49.03533" lon="2.00228">
        <ele>155</ele>
        <time>2017-10-09T20:17:33Z</time>
      </trkpt>
      <trkpt lat="49.03584" lon="2.00181">
        <ele>155</ele>
        <time>2017-10-09T20:19:33Z</time>
      </trkpt>
      <trkpt lat="49.03594" lon="2.00112">
        <ele>155</ele>
        <time>2017-10-09T20:21:33Z</time>
      </trkpt>
      <trkpt lat="49.03526" lon="2.00063">
        <ele>155</ele>
        <time>2017-10-09T20:23:33Z</time>
      </trkpt>
      <trkpt lat="49.03508" lon="2.00069">
        <ele>155</ele>
        <time>2017-10-09T20:25:33Z</time>
      </trkpt>
      <trkpt lat="49.03502" lon="2.00145">
        <ele>157</ele>
        <time>2017-10-09T20:27:33Z</time>
      </trkpt>
      <trkpt lat="49.03508" lon="2.00168">
        <ele>157</ele>
        <time>2017-10-09T20:29:33Z</time>
      </trkpt>
      <trkpt lat="49.03432" lon="2.00196">
        <ele>154</ele>
        <time>2017-10-09T20:31:33Z</time>
      </trkpt>
      <trkpt lat="49.03294" lon="2.00185">
        <ele>146</ele>
        <time>2017-10-09T20:33:33Z</time>
      </trkpt>
      <trkpt lat="49.03176" lon="2.00273">
        <ele>139</ele>
        <time>2017-10-09T20:35:33Z</time>
      </trkpt>
      <trkpt lat="49.0313" lon="2.00263">
        <ele>139</ele>
        <time>2017-10-09T20:37:33Z</time>
      </trkpt>
      <trkpt lat="49.03078" lon="2.0028">
        <ele>138</ele>
        <time>2017-10-09T20:39:33Z</time>
      </trkpt>
      <trkpt lat="49.03027" lon="2.00278">
        <ele>138</ele>
        <time>2017-10-09T20:41:33Z</time>
      </trkpt>
      <trkpt lat="49.02784" lon="2.00361">
        <ele>143</ele>
        <time>2017-10-09T20:43:33Z</time>
      </trkpt>
      <trkpt lat="49.02663" lon="2.00409">
        <ele>139</ele>
        <time>2017-10-09T20:45:33Z</time>
      </trkpt>
      <trkpt lat="49.0262" lon="2.00479">
        <ele>137</ele>
        <time>2017-10-09T20:47:33Z</time>
      </trkpt>
      <trkpt lat="49.02598" lon="2.00576">
        <ele>134</ele>
        <time>2017-10-09T20:49:33Z</time>
      </trkpt>
      <trkpt lat="49.0253" lon="2.00402">
        <ele>142</ele>
        <time>2017-10-09T20:51:33Z</time>
      </trkpt>
      <trkpt lat="49.02482" lon="2.00389">
        <ele>145</ele>
        <time>2017-10-09T20:53:33Z</time>
      </trkpt>
      <trkpt lat="49.0238" lon="2.00451">
        <ele>140</ele>
        <time>2017-10-09T20:55:33Z</time>
      </trkpt>
      <trkpt lat="49.02371" lon="2.0049">
        <ele>138</ele>
        <time>2017-10-09T20:57:33Z</time>
      </trkpt>
      <trkpt lat="49.02305" lon="2.00533">
        <ele>131</ele>
        <time>2017-10-09T20:59:33Z</time>
      </trkpt>
      <trkpt lat="49.02332" lon="2.00589">
        <ele>130</ele>
        <time>2017-10-09T21:01:33Z</time>
      </trkpt>
      <trkpt lat="49.0205" lon="2.00831">
        <ele>114</ele>
        <time>2017-10-09T21:03:33Z</time>
      </trkpt>
      <trkpt lat="49.02073" lon="2.01318">
        <ele>105</ele>
        <time>2017-10-09T21:05:33Z</time>
      </trkpt>
      <trkpt lat="49.0211" lon="2.02134">
        <ele>93</ele>
        <time>2017-10-09T21:07:33Z</time>
      </trkpt>
      <trkpt lat="49.02105" lon="2.02194">
        <ele>93</ele>
        <time>2017-10-09T21:09:33Z</time>
      </trkpt>
      <trkpt lat="49.0187" lon="2.02959">
        <ele>81</ele>
        <time>2017-10-09T21:11:33Z</time>
      </trkpt>
      <trkpt lat="49.01865" lon="2.03282">
        <ele>71</ele>
        <time>2017-10-09T21:13:33Z</time>
      </trkpt>
      <trkpt lat="49.01886" lon="2.03331">
        <ele>72</ele>
        <time>2017-10-09T21:15:33Z</time>
      </trkpt>
      <trkpt lat="49.02025" lon="2.03256">
        <ele>82</ele>
        <time>2017-10-09T21:17:33Z</time>
      </trkpt>
      <trkpt lat="49.02076" lon="2.03451">
        <ele>83</ele>
        <time>2017-10-09T21:19:33Z</time>
      </trkpt>
      <trkpt lat="49.02178" lon="2.03372">
        <ele>86</ele>
        <time>2017-10-09T21:21:33Z</time>
      </trkpt>
      <trkpt lat="49.02212" lon="2.03473">
        <ele>81</ele>
        <time>2017-10-09T21:23:33Z</time>
      </trkpt>
      <trkpt lat="49.02225" lon="2.0343">
        <ele>85</ele>
        <time>2017-10-09T21:25:33Z</time>
      </trkpt>
      <trkpt lat="49.02304" lon="2.03346">
        <ele>89</ele>
        <time>2017-10-09T21:27:33Z</time>
      </trkpt>
      <trkpt lat="49.02318" lon="2.03228">
        <ele>92</ele>
        <time>2017-10-09T21:29:33Z</time>
      </trkpt>
      <trkpt lat="49.02363" lon="2.03177">
        <ele>93</ele>
        <time>2017-10-09T21:31:33Z</time>
      </trkpt>
      <trkpt lat="49.02387" lon="2.03282">
        <ele>88</ele>
        <time>2017-10-09T21:33:33Z</time>
      </trkpt>
      <trkpt lat="49.02374" lon="2.03172">
        <ele>93</ele>
        <time>2017-10-09T21:35:33Z</time>
      </trkpt>
      <trkpt lat="49.02501" lon="2.03104">
        <ele>93</ele>
        <time>2017-10-09T21:37:33Z</time>
      </trkpt>
      <trkpt lat="49.0257" lon="2.03089">
        <ele>93</ele>
        <time>2017-10-09T21:39:33Z</time>
      </trkpt>
      <trkpt lat="49.02626" lon="2.03065">
        <ele>93</ele>
        <time>2017-10-09T21:41:33Z</time>
      </trkpt>
      <trkpt lat="49.02633" lon="2.03089">
        <ele>92</ele>
        <time>2017-10-09T21:43:33Z</time>
      </trkpt>
      <trkpt lat="49.02653" lon="2.03093">
        <ele>91</ele>
        <time>2017-10-09T21:45:33Z</time>
      </trkpt>
      <trkpt lat="49.02681" lon="2.03082">
        <ele>91</ele>
        <time>2017-10-09T21:47:33Z</time>
      </trkpt>
      <trkpt lat="49.0274" lon="2.03026">
        <ele>91</ele>
        <time>2017-10-09T21:49:33Z</time>
      </trkpt>
      <trkpt lat="49.02789" lon="2.03011">
        <ele>90</ele>
        <time>2017-10-09T21:51:33Z</time>
      </trkpt>
      <trkpt lat="49.0293" lon="2.02921">
        <ele>94</ele>
        <time>2017-10-09T21:53:33Z</time>
      </trkpt>
      <trkpt lat="49.02985" lon="2.02915">
        <ele>94</ele>
        <time>2017-10-09T21:55:33Z</time>
      </trkpt>
      <trkpt lat="49.03042" lon="2.02893">
        <ele>92</ele>
        <time>2017-10-09T21:57:33Z</time>
      </trkpt>
      <trkpt lat="49.03068" lon="2.029">
        <ele>91</ele>
        <time>2017-10-09T21:59:33Z</time>
      </trkpt>
      <trkpt lat="49.03086" lon="2.02865">
        <ele>91</ele>
        <time>2017-10-09T22:01:33Z</time>
      </trkpt>
      <trkpt lat="49.03118" lon="2.02887">
        <ele>90</ele>
        <time>2017-10-09T22:03:33Z</time>
      </trkpt>
      <trkpt lat="49.03186" lon="2.02863">
        <ele>91</ele>
        <time>2017-10-09T22:05:33Z</time>
      </trkpt>
      <trkpt lat="49.03208" lon="2.02895">
        <ele>91</ele>
        <time>2017-10-09T22:07:33Z</time>
      </trkpt>
      <trkpt lat="49.03239" lon="2.0293">
        <ele>91</ele>
        <time>2017-10-09T22:09:33Z</time>
      </trkpt>
      <trkpt lat="49.03313" lon="2.02938">
        <ele>84</ele>
        <time>2017-10-09T22:11:33Z</time>
      </trkpt>
      <trkpt lat="49.03342" lon="2.0296">
        <ele>80</ele>
        <time>2017-10-09T22:13:33Z</time>
      </trkpt>
      <trkpt lat="49.0337" lon="2.03001">
        <ele>72</ele>
        <time>2017-10-09T22:15:33Z</time>
      </trkpt>
      <trkpt lat="49.03386" lon="2.02979">
        <ele>70</ele>
        <time>2017-10-09T22:17:33Z</time>
      </trkpt>
      <trkpt lat="49.03396" lon="2.02953">
        <ele>70</ele>
        <time>2017-10-09T22:19:33Z</time>
      </trkpt>
      <trkpt lat="49.03403" lon="2.02968">
        <ele>67</ele>
        <time>2017-10-09T22:21:33Z</time>
      </trkpt>
      <trkpt lat="49.03363" lon="2.03162">
        <ele>51</ele>
        <time>2017-10-09T22:23:33Z</time>
      </trkpt>
      <trkpt lat="49.03379" lon="2.03344">
        <ele>41</ele>
        <time>2017-10-09T22:25:33Z</time>
      </trkpt>
      <trkpt lat="49.03419" lon="2.03365">
        <ele>41</ele>
        <time>2017-10-09T22:27:33Z</time>
      </trkpt>
      <trkpt lat="49.03462" lon="2.03363">
        <ele>36</ele>
        <time>2017-10-09T22:29:33Z</time>
      </trkpt>
      <trkpt lat="49.03501" lon="2.03076">
        <ele>44</ele>
        <time>2017-10-09T22:31:33Z</time>
      </trkpt>
      <trkpt lat="49.03509" lon="2.0305">
        <ele>45</ele>
        <time>2017-10-09T22:33:33Z</time>
      </trkpt>
      <trkpt lat="49.03522" lon="2.02951">
        <ele>46</ele>
        <time>2017-10-09T22:35:33Z</time>
      </trkpt>
      <trkpt lat="49.03532" lon="2.02853">
        <ele>45</ele>
        <time>2017-10-09T22:37:33Z</time>
      </trkpt>
      <trkpt lat="49.03583" lon="2.02829">
        <ele>43</ele>
        <time>2017-10-09T22:39:33Z</time>
      </trkpt>
      <trkpt lat="49.03595" lon="2.02775">
        <ele>48</ele>
        <time>2017-10-09T22:41:33Z</time>
      </trkpt>
      <trkpt lat="49.03612" lon="2.02752">
        <ele>49</ele>
        <time>2017-10-09T22:43:33Z</time>
      </trkpt>
      <trkpt lat="49.03698" lon="2.02636">
        <ele>56</ele>
        <time>2017-10-09T22:45:33Z</time>
      </trkpt>
      <trkpt lat="49.03856" lon="2.02552">
        <ele>70</ele>
        <time>2017-10-09T22:47:33Z</time>
      </trkpt>
      <trkpt lat="49.03889" lon="2.02544">
        <ele>74</ele>
        <time>2017-10-09T22:49:33Z</time>
      </trkpt>
      <trkpt lat="49.03955" lon="2.02593">
        <ele>78</ele>
        <time>2017-10-09T22:51:33Z</time>
      </trkpt>
      <trkpt lat="49.04071" lon="2.02578">
        <ele>84</ele>
        <time>2017-10-09T22:53:33Z</time>
      </trkpt>
      <trkpt lat="49.04159" lon="2.02419">
        <ele>89</ele>
        <time>2017-10-09T22:55:33Z</time>
      </trkpt>
      <trkpt lat="49.04171" lon="2.0237">
        <ele>89</ele>
        <time>2017-10-09T22:57:33Z</time>
      </trkpt>
      <trkpt lat="49.04155" lon="2.02303">
        <ele>89</ele>
        <time>2017-10-09T22:59:33Z</time>
      </trkpt>
      <trkpt lat="49.04227" lon="2.02114">
        <ele>95</ele>
        <time>2017-10-09T23:01:33Z</time>
      </trkpt>
      <trkpt lat="49.04227" lon="2.02059">
        <ele>96</ele>
        <time>2017-10-09T23:03:33Z</time>
      </trkpt>
      <trkpt lat="49.04245" lon="2.02039">
        <ele>96</ele>
        <time>2017-10-09T23:05:33Z</time>
      </trkpt>
      <trkpt lat="49.04266" lon="2.02014">
        <ele>96</ele>
        <time>2017-10-09T23:07:33Z</time>
      </trkpt>
      <trkpt lat="49.04306" lon="2.02016">
        <ele>96</ele>
        <time>2017-10-09T23:09:33Z</time>
      </trkpt>
      <trkpt lat="49.04332" lon="2.01964">
        <ele>96</ele>
        <time>2017-10-09T23:11:33Z</time>
      </trkpt>
      <trkpt lat="49.04348" lon="2.01969">
        <ele>97</ele>
        <time>2017-10-09T23:13:33Z</time>
      </trkpt>
      <trkpt lat="49.04372" lon="2.01964">
        <ele>98</ele>
        <time>2017-10-09T23:15:33Z</time>
      </trkpt>
      <trkpt lat="49.04386" lon="2.0193">
        <ele>99</ele>
        <time>2017-10-09T23:17:33Z</time>
      </trkpt>
      <trkpt lat="49.04382" lon="2.01893">
        <ele>99</ele>
        <time>2017-10-09T23:19:33Z</time>
      </trkpt>
      <trkpt lat="49.04405" lon="2.01855">
        <ele>101</ele>
        <time>2017-10-09T23:21:33Z</time>
      </trkpt>
      <trkpt lat="49.04414" lon="2.01769">
        <ele>102</ele>
        <time>2017-10-09T23:23:33Z</time>
      </trkpt>
      <trkpt lat="49.04674" lon="2.01333">
        <ele>108</ele>
        <time>2017-10-09T23:25:33Z</time>
      </trkpt>
      <trkpt lat="49.04747" lon="2.01211">
        <ele>110</ele>
        <time>2017-10-09T23:27:33Z</time>
      </trkpt>
      <trkpt lat="49.04781" lon="2.01205">
        <ele>112</ele>
        <time>2017-10-09T23:29:33Z</time>
      </trkpt>
      <trkpt lat="49.0483" lon="2.01114">
        <ele>119</ele>
        <time>2017-10-09T23:31:33Z</time>
      </trkpt>
      <trkpt lat="49.04726" lon="2.00964">
        <ele>116</ele>
        <time>2017-10-09T23:33:33Z</time>
      </trkpt>
      <trkpt lat="49.04754" lon="2.00924">
        <ele>116</ele>
        <time>2017-10-09T23:35:33Z</time>
      </trkpt>
      <trkpt lat="49.04771" lon="2.00808">
        <ele>112</ele>
        <time>2017-10-09T23:37:33Z</time>
      </trkpt>
      <trkpt lat="49.04566" lon="2.00333">
        <ele>113</ele>
        <time>2017-10-09T23:39:33Z</time>
      </trkpt>
      <trkpt lat="49.04538" lon="2.00286">
        <ele>113</ele>
        <time>2017-10-09T23:41:33Z</time>
      </trkpt>
      <trkpt lat="49.04563" lon="2.00151">
        <ele>112</ele>
        <time>2017-10-09T23:43:33Z</time>
      </trkpt>
      <trkpt lat="49.04611" lon="2.00016">
        <ele>114</ele>
        <time>2017-10-09T23:45:33Z</time>
      </trkpt>
      <trkpt lat="49.04631" lon="1.99988">
        <ele>114</ele>
        <time>2017-10-09T23:47:33Z</time>
      </trkpt>
      <trkpt lat="49.04564" lon="1.999">
        <ele>114</ele>
        <time>2017-10-09T23:49:33Z</time>
      </trkpt>
      <trkpt lat="49.04562" lon="1.99864">
        <ele>114</ele>
        <time>2017-10-09T23:51:33Z</time>
      </trkpt>
      <trkpt lat="49.04536" lon="1.99881">
        <ele>113</ele>
        <time>2017-10-09T23:53:33Z</time>
      </trkpt>
      <trkpt lat="49.04451" lon="1.9987">
        <ele>113</ele>
        <time>2017-10-09T23:55:33Z</time>
      </trkpt>
      <trkpt lat="49.04445" lon="1.99827">
        <ele>113</ele>
        <time>2017-10-09T23:57:33Z</time>
      </trkpt>
      <trkpt lat="49.04413" lon="1.99784">
        <ele>113</ele>
        <time>2017-10-09T23:59:33Z</time>
      </trkpt>
    </trkseg>
  </trk>
</gpx>